createdAt,value
2019-03-03T00:01:39.906Z,5.20
2019-03-03T00:04:09.754Z,5.70
2019-03-03T00:06:39.597Z,6.07
2019-03-03T00:09:09.778Z,6.00
2019-03-03T00:11:41.243Z,6.17
2019-03-03T00:14:11.378Z,6.47
2019-03-03T00:16:42.266Z,5.87
2019-03-03T00:19:12.166Z,5.80
2019-03-03T00:21:42.045Z,4.87
2019-03-03T00:24:11.959Z,4.87
2019-03-03T00:26:42.236Z,6.27
2019-03-03T00:29:12.206Z,5.63
2019-03-03T00:31:42.186Z,6.23
2019-03-03T00:34:12.295Z,5.80
2019-03-03T00:37:13.062Z,5.30
2019-03-03T00:40:04.737Z,4.00
2019-03-03T00:42:56.463Z,6.10
2019-03-03T00:45:43.761Z,5.47
2019-03-03T00:48:24.624Z,5.37
2019-03-03T00:51:01.508Z,4.97
2019-03-03T00:53:47.169Z,6.10
2019-03-03T00:56:26.128Z,4.77
2019-03-03T00:59:05.185Z,5.40
2019-03-03T01:01:43.300Z,5.90
2019-03-03T01:04:18.907Z,5.33
2019-03-03T01:07:07.785Z,4.77
2019-03-03T01:10:02.743Z,5.17
2019-03-03T01:12:57.528Z,4.77
2019-03-03T01:15:36.647Z,4.43
2019-03-03T01:18:24.542Z,4.80
2019-03-03T01:20:58.903Z,4.20
2019-03-03T01:23:59.699Z,4.40
2019-03-03T01:26:29.599Z,4.70
2019-03-03T01:28:59.696Z,5.57
2019-03-03T01:31:29.703Z,4.20
2019-03-03T01:33:59.547Z,4.63
2019-03-03T01:36:29.293Z,4.30
2019-03-03T01:38:59.351Z,4.90
2019-03-03T01:41:29.247Z,2.80
2019-03-03T01:43:59.286Z,3.87
2019-03-03T01:46:29.217Z,5.00
2019-03-03T01:48:59.016Z,2.60
2019-03-03T01:51:28.895Z,4.73
2019-03-03T01:53:58.673Z,4.10
2019-03-03T01:56:28.516Z,3.77
2019-03-03T01:58:58.557Z,4.57
2019-03-03T02:01:28.381Z,3.23
2019-03-03T02:03:58.339Z,3.90
2019-03-03T02:06:28.466Z,4.30
2019-03-03T02:08:58.315Z,3.73
2019-03-03T02:11:28.340Z,4.17
2019-03-03T02:13:58.070Z,3.60
2019-03-03T02:16:27.897Z,4.53
2019-03-03T02:18:58.037Z,3.27
2019-03-03T02:21:28.133Z,4.20
2019-03-03T02:23:57.956Z,3.23
2019-03-03T02:26:27.781Z,3.73
2019-03-03T02:28:57.593Z,3.80
2019-03-03T02:31:27.444Z,4.60
2019-03-03T02:33:57.590Z,4.47
2019-03-03T02:36:27.602Z,4.10
2019-03-03T02:38:57.410Z,3.47
2019-03-03T02:41:27.453Z,4.27
2019-03-03T02:43:57.176Z,2.53
2019-03-03T02:46:27.074Z,4.17
2019-03-03T02:48:57.081Z,4.17
2019-03-03T02:51:26.813Z,4.03
2019-03-03T02:53:56.703Z,4.20
2019-03-03T02:56:26.567Z,4.23
2019-03-03T02:58:56.560Z,3.57
2019-03-03T03:01:30.242Z,3.03
2019-03-03T03:04:00.116Z,4.47
2019-03-03T03:06:49.074Z,3.23
2019-03-03T03:09:24.775Z,3.43
2019-03-03T03:12:22.645Z,4.20
2019-03-03T03:15:04.509Z,4.20
2019-03-03T03:17:40.300Z,4.27
2019-03-03T03:20:20.686Z,4.10
2019-03-03T03:23:05.830Z,4.83
2019-03-03T03:25:42.788Z,3.60
2019-03-03T03:28:37.651Z,4.77
2019-03-03T03:31:29.389Z,3.80
2019-03-03T03:34:18.454Z,4.10
2019-03-03T03:37:02.283Z,4.00
2019-03-03T03:39:41.185Z,4.20
2019-03-03T03:42:39.275Z,4.70
2019-03-03T03:45:20.646Z,5.00
2019-03-03T03:47:57.267Z,3.77
2019-03-03T03:50:52.186Z,4.60
2019-03-03T03:53:40.082Z,3.83
2019-03-03T03:56:28.072Z,4.83
2019-03-03T03:59:23.041Z,4.87
2019-03-03T04:02:24.223Z,4.47
2019-03-03T04:05:03.010Z,3.57
2019-03-03T04:07:51.632Z,4.03
2019-03-03T04:10:33.694Z,4.30
2019-03-03T04:13:22.593Z,3.90
2019-03-03T04:16:11.730Z,3.97
2019-03-03T04:18:56.596Z,4.10
2019-03-03T04:21:45.589Z,3.97
2019-03-03T04:24:32.737Z,3.70
2019-03-03T04:27:27.885Z,4.23
2019-03-03T04:30:05.013Z,3.57
2019-03-03T04:32:51.309Z,3.33
2019-03-03T04:35:34.544Z,3.43
2019-03-03T04:38:18.460Z,3.80
2019-03-03T04:41:02.601Z,3.70
2019-03-03T04:43:38.577Z,3.73
2019-03-03T04:46:23.034Z,3.80
2019-03-03T04:49:06.279Z,3.17
2019-03-03T04:51:54.063Z,4.30
2019-03-03T04:54:45.856Z,4.13
2019-03-03T04:57:35.053Z,3.90
2019-03-03T05:00:42.658Z,3.63
2019-03-03T05:03:19.674Z,3.90
2019-03-03T05:06:08.548Z,3.20
2019-03-03T05:08:47.341Z,3.90
2019-03-03T05:12:13.008Z,4.03
2019-03-03T05:14:42.860Z,3.73
2019-03-03T05:17:19.545Z,3.20
2019-03-03T05:19:53.652Z,3.30
2019-03-03T05:22:23.463Z,3.27
2019-03-03T05:24:53.193Z,3.63
2019-03-03T05:27:23.163Z,3.27
2019-03-03T05:29:52.978Z,3.20
2019-03-03T05:32:22.843Z,3.50
2019-03-03T05:34:52.677Z,2.60
2019-03-03T05:37:23.368Z,3.63
2019-03-03T05:39:53.373Z,3.33
2019-03-03T05:42:23.188Z,3.00
2019-03-03T05:44:53.189Z,3.23
2019-03-03T05:47:23.002Z,3.33
2019-03-03T05:49:52.822Z,2.93
2019-03-03T05:52:22.794Z,3.63
2019-03-03T05:54:52.814Z,2.93
2019-03-03T05:57:22.584Z,2.90
2019-03-03T05:59:52.413Z,2.77
2019-03-03T06:02:22.184Z,2.97
2019-03-03T06:04:52.148Z,2.87
2019-03-03T06:07:22.017Z,2.90
2019-03-03T06:09:52.044Z,2.93
2019-03-03T06:12:21.865Z,3.10
2019-03-03T06:14:52.160Z,2.43
2019-03-03T06:17:21.887Z,2.90
2019-03-03T06:19:52.737Z,1.77
2019-03-03T06:22:22.469Z,3.03
2019-03-03T06:24:52.546Z,2.90
2019-03-03T06:27:22.285Z,1.97
2019-03-03T06:29:52.252Z,2.07
2019-03-03T06:32:21.980Z,2.60
2019-03-03T06:34:51.922Z,2.80
2019-03-03T06:37:21.656Z,3.00
2019-03-03T06:39:51.781Z,2.67
2019-03-03T06:42:21.978Z,2.13
2019-03-03T06:44:51.975Z,2.30
2019-03-03T06:47:22.673Z,2.23
2019-03-03T06:49:52.706Z,1.93
2019-03-03T06:52:22.509Z,1.90
2019-03-03T06:54:52.556Z,2.03
2019-03-03T06:57:22.311Z,2.07
2019-03-03T06:59:52.299Z,2.10
2019-03-03T07:02:22.320Z,1.80
2019-03-03T07:04:52.133Z,1.87
2019-03-03T07:07:21.957Z,1.70
2019-03-03T07:09:52.639Z,2.30
2019-03-03T07:12:22.538Z,2.47
2019-03-03T07:14:52.664Z,2.03
2019-03-03T07:17:22.405Z,2.07
2019-03-03T07:19:52.154Z,1.63
2019-03-03T07:22:22.061Z,2.10
2019-03-03T07:24:52.406Z,1.93
2019-03-03T07:27:22.256Z,1.90
2019-03-03T07:29:51.993Z,2.33
2019-03-03T07:32:21.822Z,2.10
2019-03-03T07:34:52.606Z,1.63
2019-03-03T07:37:22.369Z,2.03
2019-03-03T07:39:54.081Z,1.60
2019-03-03T07:42:23.842Z,1.63
2019-03-03T07:44:53.745Z,2.07
2019-03-03T07:47:23.755Z,1.70
2019-03-03T07:49:53.560Z,1.53
2019-03-03T07:52:23.400Z,2.00
2019-03-03T07:54:53.218Z,1.47
2019-03-03T07:57:23.041Z,1.70
2019-03-03T07:59:52.781Z,1.90
2019-03-03T08:02:22.537Z,1.47
2019-03-03T08:04:52.270Z,1.90
2019-03-03T08:07:22.589Z,1.67
2019-03-03T08:09:52.598Z,1.60
2019-03-03T08:12:22.866Z,1.63
2019-03-03T08:14:52.919Z,1.03
2019-03-03T08:17:22.743Z,1.33
2019-03-03T08:19:52.661Z,1.90
2019-03-03T08:22:22.734Z,1.63
2019-03-03T08:24:52.512Z,1.70
2019-03-03T08:27:22.352Z,1.50
2019-03-03T08:29:53.162Z,1.43
2019-03-03T08:32:22.990Z,1.83
2019-03-03T08:34:53.066Z,1.40
2019-03-03T08:37:22.890Z,0.97
2019-03-03T08:39:52.880Z,1.53
2019-03-03T08:42:40.175Z,1.67
2019-03-03T08:45:21.668Z,1.70
2019-03-03T08:47:55.852Z,1.53
2019-03-03T08:50:33.325Z,2.20
2019-03-03T08:53:12.364Z,1.43
2019-03-03T08:56:07.491Z,1.70
2019-03-03T08:58:45.501Z,1.83
2019-03-03T09:01:34.462Z,1.57
2019-03-03T09:04:21.307Z,2.10
2019-03-03T09:07:10.209Z,2.37
2019-03-03T09:09:57.422Z,1.47
2019-03-03T09:12:49.393Z,1.50
2019-03-03T09:15:44.073Z,1.80
2019-03-03T09:18:31.853Z,1.90
2019-03-03T09:21:23.760Z,1.70
2019-03-03T09:24:11.405Z,1.00
2019-03-03T09:26:59.042Z,2.13
2019-03-03T09:30:03.833Z,1.47
2019-03-03T09:32:42.578Z,1.23
2019-03-03T09:35:46.955Z,1.53
2019-03-03T09:38:21.600Z,0.80
2019-03-03T09:41:08.482Z,1.30
2019-03-03T09:44:15.635Z,1.20
2019-03-03T09:47:10.429Z,1.80
2019-03-03T09:50:01.822Z,1.80
2019-03-03T09:52:50.810Z,2.20
2019-03-03T09:55:52.654Z,1.50
2019-03-03T09:58:39.912Z,1.43
2019-03-03T10:01:16.131Z,1.30
2019-03-03T10:04:07.823Z,1.77
2019-03-03T10:06:53.698Z,1.63
2019-03-03T10:09:42.601Z,1.47
2019-03-03T10:12:28.265Z,1.10
2019-03-03T10:15:19.362Z,1.73
2019-03-03T10:17:58.452Z,2.37
2019-03-03T10:20:41.854Z,1.23
2019-03-03T10:23:30.745Z,1.17
2019-03-03T10:26:25.704Z,1.17
2019-03-03T10:29:14.662Z,1.80
2019-03-03T10:31:52.796Z,1.20
2019-03-03T10:34:45.954Z,1.13
2019-03-03T10:37:33.249Z,1.40
2019-03-03T10:40:25.390Z,1.50
2019-03-03T10:43:13.162Z,1.30
2019-03-03T10:46:11.172Z,1.50
2019-03-03T10:49:06.280Z,0.70
2019-03-03T10:51:42.238Z,1.53
2019-03-03T10:54:18.283Z,1.70
2019-03-03T10:57:07.170Z,1.33
2019-03-03T10:59:55.748Z,1.17
2019-03-03T11:02:41.418Z,1.53
2019-03-03T11:05:21.405Z,1.43
2019-03-03T11:08:10.366Z,1.23
2019-03-03T11:11:08.342Z,1.27
2019-03-03T11:13:57.206Z,1.10
2019-03-03T11:16:41.660Z,1.40
2019-03-03T11:19:30.304Z,1.80
2019-03-03T11:22:18.038Z,1.77
2019-03-03T11:25:05.403Z,1.63
2019-03-03T11:27:50.482Z,1.00
2019-03-03T11:30:42.444Z,1.33
2019-03-03T11:33:37.741Z,1.23
2019-03-03T11:36:45.258Z,1.60
2019-03-03T11:39:29.831Z,1.60
2019-03-03T11:42:04.541Z,1.00
2019-03-03T11:45:05.327Z,1.57
2019-03-03T11:51:14.563Z,1.27
2019-03-03T11:53:53.801Z,1.80
2019-03-03T11:56:42.253Z,1.53
2019-03-03T11:59:29.537Z,1.67
2019-03-03T12:02:09.200Z,1.87
2019-03-03T12:04:56.480Z,0.90
2019-03-03T12:07:45.551Z,1.93
2019-03-03T12:10:46.680Z,1.40
2019-03-03T12:13:38.334Z,1.50
2019-03-03T12:16:30.100Z,1.23
2019-03-03T12:19:18.976Z,1.53
2019-03-03T12:21:58.362Z,1.83
2019-03-03T12:24:47.565Z,1.53
2019-03-03T12:27:36.525Z,1.70
2019-03-03T12:30:34.256Z,1.40
2019-03-03T12:33:19.041Z,1.67
2019-03-03T12:36:02.582Z,1.37
2019-03-03T12:38:39.843Z,1.07
2019-03-03T12:41:31.488Z,1.63
2019-03-03T12:44:32.464Z,1.40
2019-03-03T12:47:24.264Z,1.50
2019-03-03T12:50:19.448Z,0.93
2019-03-03T12:53:00.985Z,1.40
2019-03-03T12:55:48.146Z,1.70
2019-03-03T12:58:35.531Z,1.47
2019-03-03T13:01:25.252Z,1.27
2019-03-03T13:04:12.922Z,1.20
2019-03-03T13:07:04.525Z,1.80
2019-03-03T13:09:51.863Z,1.43
2019-03-03T13:12:31.574Z,1.03
2019-03-03T13:15:07.023Z,1.67
2019-03-03T13:17:48.239Z,1.60
2019-03-03T13:20:41.885Z,1.07
2019-03-03T13:23:20.750Z,1.13
2019-03-03T13:26:21.683Z,2.10
2019-03-03T13:29:06.572Z,1.30
2019-03-03T13:31:48.868Z,1.70
2019-03-03T13:34:43.639Z,1.70
2019-03-03T13:37:50.622Z,1.77
2019-03-03T13:40:38.610Z,1.27
2019-03-03T13:43:08.877Z,1.53
2019-03-03T13:45:38.701Z,0.80
2019-03-03T13:48:08.602Z,1.30
2019-03-03T13:50:38.927Z,1.37
2019-03-03T13:53:08.931Z,1.27
2019-03-03T13:55:38.831Z,0.93
2019-03-03T13:58:09.034Z,1.20
2019-03-03T14:00:39.203Z,0.87
2019-03-03T14:03:09.337Z,1.33
2019-03-03T14:05:39.219Z,1.13
2019-03-03T14:08:10.072Z,1.47
2019-03-03T14:10:39.968Z,0.50
2019-03-03T14:13:09.945Z,1.30
2019-03-03T14:15:39.835Z,1.43
2019-03-03T14:18:09.945Z,1.10
2019-03-03T14:20:39.783Z,1.30
2019-03-03T14:23:09.521Z,1.60
2019-03-03T14:25:39.414Z,1.40
2019-03-03T14:28:09.296Z,0.93
2019-03-03T14:30:39.181Z,1.90
2019-03-03T14:33:08.998Z,1.33
2019-03-03T14:35:38.751Z,2.00
2019-03-03T14:38:08.718Z,2.53
2019-03-03T14:40:38.622Z,3.13
2019-03-03T14:43:08.762Z,2.93
2019-03-03T14:45:38.506Z,1.13
2019-03-03T14:48:08.695Z,1.43
2019-03-03T14:50:38.667Z,1.60
2019-03-03T14:53:08.479Z,1.53
2019-03-03T14:55:38.303Z,1.30
2019-03-03T14:58:08.100Z,1.80
2019-03-03T15:00:37.997Z,1.60
2019-03-03T15:03:08.347Z,1.50
2019-03-03T15:05:38.241Z,1.63
2019-03-03T15:08:08.477Z,1.33
2019-03-03T15:10:38.318Z,1.43
2019-03-03T15:13:08.223Z,1.23
2019-03-03T15:15:38.158Z,2.20
2019-03-03T15:18:07.977Z,2.00
2019-03-03T15:20:37.874Z,1.37
2019-03-03T15:23:08.006Z,1.57
2019-03-03T15:25:37.829Z,1.60
2019-03-03T15:28:08.686Z,1.70
2019-03-03T15:30:38.574Z,1.87
2019-03-03T15:33:09.363Z,1.10
2019-03-03T15:35:39.099Z,1.20
2019-03-03T15:38:09.234Z,0.90
2019-03-03T15:40:39.151Z,1.10
2019-03-03T15:43:09.428Z,1.63
2019-03-03T15:45:39.496Z,1.57
2019-03-03T15:48:09.491Z,1.40
2019-03-03T15:50:39.437Z,1.50
2019-03-03T15:53:10.196Z,1.40
2019-03-03T15:55:40.297Z,1.90
2019-03-03T15:58:10.674Z,1.53
2019-03-03T16:00:40.805Z,2.17
2019-03-03T16:03:11.369Z,1.50
2019-03-03T16:05:41.350Z,1.63
2019-03-03T16:08:11.258Z,1.70
2019-03-03T16:10:43.341Z,1.70
2019-03-03T16:13:13.428Z,1.53
2019-03-03T16:15:43.788Z,2.07
2019-03-03T16:18:14.182Z,1.70
2019-03-03T16:20:45.229Z,1.60
2019-03-03T16:23:15.433Z,1.33
2019-03-03T16:25:46.904Z,2.67
2019-03-03T16:28:17.018Z,2.13
2019-03-03T16:30:47.287Z,2.10
2019-03-03T16:33:20.881Z,1.70
2019-03-03T16:35:52.842Z,1.90
2019-03-03T16:38:22.866Z,0.93
2019-03-03T16:40:53.413Z,1.47
2019-03-03T16:43:23.813Z,1.40
2019-03-03T16:45:53.887Z,1.17
2019-03-03T16:48:24.600Z,1.80
2019-03-03T16:50:55.066Z,1.53
2019-03-03T16:53:25.985Z,2.00
2019-03-03T16:55:56.257Z,2.97
2019-03-03T16:58:27.458Z,3.00
2019-03-03T17:00:58.134Z,2.97
2019-03-03T17:03:38.024Z,2.27
2019-03-03T17:06:08.826Z,1.60
2019-03-03T17:08:39.930Z,1.33
2019-03-03T17:11:10.709Z,1.50
2019-03-03T17:13:48.247Z,1.20
2019-03-03T17:16:19.322Z,1.67
2019-03-03T17:18:53.696Z,1.43
2019-03-03T17:21:24.597Z,1.70
2019-03-03T17:23:57.114Z,1.20
2019-03-03T17:26:29.163Z,2.10
2019-03-03T17:29:00.389Z,2.27
2019-03-03T17:31:34.310Z,1.63
2019-03-03T17:34:13.252Z,1.80
2019-03-03T17:36:44.167Z,1.43
2019-03-03T17:39:15.755Z,1.50
2019-03-03T17:41:53.638Z,1.87
2019-03-03T17:44:23.626Z,1.30
2019-03-03T17:46:56.051Z,1.43
2019-03-03T17:49:26.983Z,1.50
2019-03-03T17:51:57.240Z,1.20
2019-03-03T17:54:27.334Z,1.40
2019-03-03T17:56:57.399Z,1.57
2019-03-03T17:59:27.374Z,1.43
2019-03-03T18:01:57.535Z,1.97
2019-03-03T18:04:27.462Z,1.60
2019-03-03T18:06:57.337Z,1.90
2019-03-03T18:09:27.510Z,1.77
2019-03-03T18:11:59.584Z,2.60
2019-03-03T18:14:29.332Z,2.40
2019-03-03T18:16:59.055Z,2.73
2019-03-03T18:19:29.155Z,2.80
2019-03-03T18:21:58.904Z,4.17
2019-03-03T18:24:28.725Z,4.27
2019-03-03T18:26:58.813Z,3.70
2019-03-03T18:29:28.632Z,3.43
2019-03-03T18:31:58.552Z,2.77
2019-03-03T18:34:28.613Z,3.87
2019-03-03T18:36:58.378Z,3.07
2019-03-03T18:39:28.596Z,2.80
2019-03-03T18:41:58.646Z,2.33
2019-03-03T18:44:28.409Z,2.60
2019-03-03T18:46:58.446Z,2.63
2019-03-03T18:49:28.573Z,2.60
2019-03-03T18:51:58.379Z,2.27
2019-03-03T18:54:28.349Z,2.90
2019-03-03T18:56:58.099Z,2.50
2019-03-03T18:59:27.951Z,2.60
2019-03-03T19:01:57.975Z,2.53
2019-03-03T19:04:27.784Z,2.37
2019-03-03T19:06:57.645Z,2.53
2019-03-03T19:09:27.734Z,3.80
2019-03-03T19:11:57.609Z,3.53
2019-03-03T19:14:28.532Z,2.90
2019-03-03T19:16:59.648Z,3.00
2019-03-03T19:19:30.344Z,2.80
2019-03-03T19:22:00.910Z,2.47
2019-03-03T19:24:31.871Z,3.03
2019-03-03T19:27:02.621Z,2.87
2019-03-03T19:29:33.154Z,2.90
2019-03-03T19:32:03.370Z,3.00
2019-03-03T19:34:37.307Z,2.70
2019-03-03T19:37:07.882Z,2.40
2019-03-03T19:39:38.448Z,2.23
2019-03-03T19:42:08.884Z,2.80
2019-03-03T19:44:39.676Z,2.67
2019-03-03T19:47:10.296Z,2.30
2019-03-03T19:49:44.364Z,3.30
2019-03-03T19:52:15.178Z,2.97
2019-03-03T19:54:46.204Z,2.83
2019-03-03T19:57:16.345Z,3.30
2019-03-03T19:59:46.207Z,3.10
2019-03-03T20:02:16.274Z,2.43
2019-03-03T20:04:46.463Z,2.40
2019-03-03T20:07:16.390Z,1.83
2019-03-03T20:09:46.833Z,1.77
2019-03-03T20:12:16.577Z,2.33
2019-03-03T20:14:46.516Z,2.03
2019-03-03T20:17:16.357Z,2.20
2019-03-03T20:19:46.346Z,2.13
2019-03-03T20:22:16.117Z,2.13
2019-03-03T20:24:46.085Z,2.47
2019-03-03T20:27:15.861Z,1.80
2019-03-03T20:29:45.770Z,2.03
2019-03-03T20:32:15.773Z,1.93
2019-03-03T20:34:45.535Z,1.67
2019-03-03T20:37:15.509Z,2.47
2019-03-03T20:39:45.232Z,2.23
2019-03-03T20:42:16.637Z,2.33
2019-03-03T20:44:46.356Z,2.40
2019-03-03T20:47:16.122Z,1.93
2019-03-03T20:49:45.950Z,1.90
2019-03-03T20:52:16.473Z,2.27
2019-03-03T20:54:46.362Z,2.20
2019-03-03T20:57:16.689Z,2.03
2019-03-03T20:59:46.681Z,1.90
2019-03-03T21:02:17.582Z,2.50
2019-03-03T21:04:48.465Z,1.90
2019-03-03T21:07:18.286Z,1.67
2019-03-03T21:09:48.121Z,2.07
2019-03-03T21:12:17.943Z,1.93
2019-03-03T21:14:47.701Z,1.83
2019-03-03T21:17:17.898Z,1.97
2019-03-03T21:19:47.619Z,1.93
2019-03-03T21:22:17.623Z,1.93
2019-03-03T21:24:49.257Z,2.60
2019-03-03T21:27:20.103Z,2.00
2019-03-03T21:29:49.824Z,1.70
2019-03-03T21:32:19.561Z,1.87
2019-03-03T21:34:50.501Z,1.60
2019-03-03T21:37:20.453Z,2.30
2019-03-03T21:39:50.181Z,2.20
2019-03-03T21:42:20.193Z,1.87
2019-03-03T21:44:49.974Z,2.20
2019-03-03T21:47:20.133Z,2.33
2019-03-03T21:49:50.089Z,2.23
2019-03-03T21:52:20.535Z,2.50
2019-03-03T21:54:50.826Z,1.63
2019-03-03T21:57:20.726Z,1.70
2019-03-03T21:59:50.544Z,1.83
2019-03-03T22:02:20.433Z,1.90
2019-03-03T22:04:50.692Z,1.70
2019-03-03T22:07:20.532Z,1.73
2019-03-03T22:09:50.253Z,1.93
2019-03-03T22:12:19.989Z,1.80
2019-03-03T22:14:50.748Z,1.47
2019-03-03T22:17:20.698Z,1.77
2019-03-03T22:19:51.640Z,1.53
2019-03-03T22:22:21.530Z,1.93
2019-03-03T22:24:51.869Z,1.57
2019-03-03T22:27:21.702Z,1.67
2019-03-03T22:29:52.550Z,1.60
2019-03-03T22:32:22.384Z,1.57
2019-03-03T22:34:52.260Z,1.80
2019-03-03T22:37:22.005Z,1.30
2019-03-03T22:39:52.181Z,1.63
2019-03-03T22:42:22.064Z,1.63
2019-03-03T22:44:51.806Z,1.57
2019-03-03T22:47:21.536Z,1.70
2019-03-03T22:49:51.585Z,2.00
2019-03-03T22:52:21.485Z,1.47
2019-03-03T22:54:51.503Z,1.60
2019-03-03T22:57:21.427Z,1.87
2019-03-03T22:59:51.374Z,1.70
2019-03-03T23:02:22.426Z,1.27
2019-03-03T23:05:16.690Z,1.73
2019-03-03T23:08:18.721Z,1.67
2019-03-03T23:11:19.993Z,1.43
2019-03-03T23:15:00.893Z,1.80
2019-03-03T23:18:01.803Z,1.50
2019-03-03T23:20:42.666Z,1.27
2019-03-03T23:23:37.297Z,1.30
2019-03-03T23:26:16.289Z,1.30
2019-03-03T23:28:40.618Z,1.70
2019-03-03T23:31:10.595Z,1.57
2019-03-03T23:33:40.822Z,1.37
2019-03-03T23:36:10.793Z,1.83
2019-03-03T23:38:40.632Z,1.73
2019-03-03T23:41:10.690Z,1.47
2019-03-03T23:43:40.521Z,1.83
2019-03-03T23:46:10.406Z,1.93
2019-03-03T23:48:40.397Z,1.77
2019-03-03T23:51:10.394Z,1.47
2019-03-03T23:53:40.221Z,1.73
2019-03-03T23:56:09.969Z,1.57
2019-03-03T23:58:39.702Z,1.40
